FRS131 EDXW-EDDW
Flight info
| Callsign | FRS131 |
|---|---|
| Flight time | N/A |
| Altitude | 3500 |
| Route | DCT EDHL DCT |
| Aircraft | C208/L-SDFGR/C |
Departure
| Time | 2026-04-23 18:50 |
|---|---|
| Airport | Westerland Sylt Airport (EDXW) |
Arrival
| Time | N/A |
|---|---|
| Airport | Bremen Airport (EDDW) |
| Time | Latitude | Longitude | Altitude | Speed | Heading |
|---|---|---|---|---|---|
| 2026-04-23 18:30 | 54.91246 | 8.32525 | 38 ft | 0 kts | 240° |
| 2026-04-23 18:41 | 54.91223 | 8.32534 | 37 ft | 6 kts | 138° |
| 2026-04-23 18:42 | 54.91183 | 8.32599 | 37 ft | 11 kts | 135° |
| 2026-04-23 18:42 | 54.91124 | 8.32673 | 37 ft | 10 kts | 149° |
| 2026-04-23 18:42 | 54.91086 | 8.32753 | 37 ft | 8 kts | 109° |
| 2026-04-23 18:42 | 54.91070 | 8.32835 | 37 ft | 6 kts | 110° |
| 2026-04-23 18:43 | 54.91055 | 8.32898 | 37 ft | 5 kts | 116° |
| 2026-04-23 18:43 | 54.91019 | 8.32991 | 38 ft | 12 kts | 130° |
| 2026-04-23 18:43 | 54.90964 | 8.33086 | 38 ft | 10 kts | 141° |
| 2026-04-23 18:43 | 54.90908 | 8.33149 | 37 ft | 9 kts | 152° |
| 2026-04-23 18:44 | 54.90815 | 8.33207 | 38 ft | 18 kts | 168° |
| 2026-04-23 18:44 | 54.90695 | 8.33229 | 38 ft | 17 kts | 175° |
| 2026-04-23 18:44 | 54.90578 | 8.33246 | 38 ft | 17 kts | 175° |
| 2026-04-23 18:44 | 54.90469 | 8.33292 | 38 ft | 16 kts | 158° |
| 2026-04-23 18:45 | 54.90379 | 8.33387 | 38 ft | 14 kts | 139° |
| 2026-04-23 18:45 | 54.90316 | 8.33506 | 38 ft | 13 kts | 125° |
| 2026-04-23 18:45 | 54.90278 | 8.33632 | 38 ft | 11 kts | 111° |
| 2026-04-23 18:45 | 54.90258 | 8.33771 | 38 ft | 16 kts | 99° |
| 2026-04-23 18:46 | 54.90239 | 8.34000 | 39 ft | 20 kts | 97° |
| 2026-04-23 18:46 | 54.90246 | 8.34233 | 39 ft | 19 kts | 79° |
| 2026-04-23 18:46 | 54.90268 | 8.34454 | 39 ft | 18 kts | 80° |
| 2026-04-23 18:46 | 54.90290 | 8.34668 | 39 ft | 18 kts | 79° |
| 2026-04-23 18:47 | 54.90312 | 8.34875 | 39 ft | 17 kts | 80° |
| 2026-04-23 18:47 | 54.90327 | 8.35027 | 39 ft | 4 kts | 80° |
| 2026-04-23 18:47 | 54.90339 | 8.35073 | 39 ft | 6 kts | 57° |
| 2026-04-23 18:47 | 54.90390 | 8.35165 | 40 ft | 10 kts | 18° |
| 2026-04-23 18:48 | 54.90433 | 8.35149 | 40 ft | 0 kts | 324° |
| 2026-04-23 18:48 | 54.90512 | 8.35052 | 40 ft | 40 kts | 324° |
| 2026-04-23 18:49 | 54.90858 | 8.34629 | 57 ft | 76 kts | 324° |
| 2026-04-23 18:49 | 54.91314 | 8.34064 | 174 ft | 85 kts | 325° |
| 2026-04-23 18:49 | 54.91866 | 8.33643 | 303 ft | 95 kts | 1° |
| 2026-04-23 18:49 | 54.92358 | 8.34532 | 516 ft | 118 kts | 56° |
| 2026-04-23 18:50 | 54.92496 | 8.35475 | 618 ft | 131 kts | 78° |
| 2026-04-23 18:50 | 54.91938 | 8.37475 | 825 ft | 139 kts | 117° |
| 2026-04-23 18:50 | 54.91416 | 8.38934 | 938 ft | 148 kts | 117° |
| 2026-04-23 18:50 | 54.90855 | 8.40484 | 1096 ft | 155 kts | 117° |
| 2026-04-23 18:51 | 54.90258 | 8.42076 | 1256 ft | 159 kts | 117° |
| 2026-04-23 18:51 | 54.89634 | 8.43700 | 1368 ft | 164 kts | 117° |
| 2026-04-23 18:51 | 54.88986 | 8.45368 | 1459 ft | 168 kts | 117° |
| 2026-04-23 18:51 | 54.88348 | 8.47085 | 1534 ft | 168 kts | 105° |
| 2026-04-23 18:52 | 54.88010 | 8.48990 | 1624 ft | 165 kts | 93° |
| 2026-04-23 18:52 | 54.87769 | 8.50933 | 1706 ft | 164 kts | 90° |
| 2026-04-23 18:52 | 54.87561 | 8.52880 | 1789 ft | 163 kts | 88° |
| 2026-04-23 18:52 | 54.87376 | 8.54815 | 1865 ft | 162 kts | 88° |
| 2026-04-23 18:53 | 54.87187 | 8.56738 | 1947 ft | 162 kts | 87° |
| 2026-04-23 18:53 | 54.86989 | 8.58669 | 2025 ft | 163 kts | 88° |
| 2026-04-23 18:53 | 54.86786 | 8.60607 | 2104 ft | 164 kts | 88° |
| 2026-04-23 18:53 | 54.86582 | 8.62554 | 2186 ft | 164 kts | 88° |
| 2026-04-23 18:54 | 54.86379 | 8.64517 | 2229 ft | 167 kts | 88° |
| 2026-04-23 18:54 | 54.86124 | 8.66525 | 2233 ft | 177 kts | 98° |
| 2026-04-23 18:54 | 54.85626 | 8.68509 | 2232 ft | 180 kts | 104° |
| 2026-04-23 18:54 | 54.85122 | 8.70493 | 2232 ft | 179 kts | 103° |
| 2026-04-23 18:55 | 54.84613 | 8.72467 | 2230 ft | 179 kts | 103° |
| 2026-04-23 18:55 | 54.84102 | 8.74431 | 2232 ft | 178 kts | 104° |
| 2026-04-23 18:55 | 54.83653 | 8.76408 | 2224 ft | 171 kts | 89° |
| 2026-04-23 18:55 | 54.83527 | 8.78413 | 2224 ft | 167 kts | 82° |
| 2026-04-23 18:56 | 54.83462 | 8.79742 | 2225 ft | 167 kts | 82° |
| 2026-04-23 18:56 | 54.83257 | 8.82458 | 2230 ft | 172 kts | 87° |
| 2026-04-23 18:56 | 54.83053 | 8.84514 | 2226 ft | 174 kts | 88° |
| 2026-04-23 18:56 | 54.82843 | 8.86580 | 2224 ft | 174 kts | 88° |
| 2026-04-23 18:57 | 54.82632 | 8.88650 | 2221 ft | 174 kts | 87° |
| 2026-04-23 18:57 | 54.82419 | 8.90719 | 2218 ft | 175 kts | 88° |
| 2026-04-23 18:57 | 54.82278 | 8.92091 | 2220 ft | 175 kts | 87° |
| 2026-04-23 18:57 | 54.82067 | 8.94166 | 2217 ft | 174 kts | 87° |
| 2026-04-23 18:58 | 54.81856 | 8.96239 | 2215 ft | 175 kts | 88° |
| 2026-04-23 18:58 | 54.81643 | 8.98313 | 2215 ft | 175 kts | 88° |
| 2026-04-23 18:58 | 54.81429 | 9.00389 | 2215 ft | 175 kts | 88° |
| 2026-04-23 18:58 | 54.81147 | 9.02470 | 2209 ft | 179 kts | 95° |
| 2026-04-23 18:59 | 54.80786 | 9.04547 | 2210 ft | 180 kts | 96° |
| 2026-04-23 18:59 | 54.80422 | 9.06620 | 2208 ft | 180 kts | 96° |
| 2026-04-23 18:59 | 54.80056 | 9.08690 | 2211 ft | 180 kts | 96° |
| 2026-04-23 18:59 | 54.79693 | 9.10767 | 2209 ft | 180 kts | 96° |
| 2026-04-23 19:00 | 54.79327 | 9.12832 | 2202 ft | 179 kts | 96° |
| 2026-04-23 19:00 | 54.78967 | 9.14892 | 2207 ft | 178 kts | 96° |
| 2026-04-23 19:00 | 54.78606 | 9.16948 | 2205 ft | 179 kts | 96° |
| 2026-04-23 19:00 | 54.78243 | 9.19012 | 2201 ft | 180 kts | 96° |
| 2026-04-23 19:01 | 54.77875 | 9.21090 | 2203 ft | 181 kts | 96° |
| 2026-04-23 19:01 | 54.77504 | 9.23194 | 2200 ft | 183 kts | 96° |
| 2026-04-23 19:01 | 54.77131 | 9.25309 | 2200 ft | 184 kts | 97° |
| 2026-04-23 19:01 | 54.76755 | 9.27429 | 2201 ft | 184 kts | 97° |
| 2026-04-23 19:02 | 54.76377 | 9.29553 | 2201 ft | 184 kts | 97° |
| 2026-04-23 19:02 | 54.76002 | 9.31670 | 2198 ft | 184 kts | 97° |
| 2026-04-23 19:02 | 54.75628 | 9.33769 | 2194 ft | 181 kts | 96° |
| 2026-04-23 19:02 | 54.75256 | 9.35854 | 2193 ft | 181 kts | 97° |
| 2026-04-23 19:03 | 54.74886 | 9.37932 | 2183 ft | 180 kts | 97° |
| 2026-04-23 19:03 | 54.74518 | 9.40017 | 2190 ft | 183 kts | 97° |
| 2026-04-23 19:03 | 54.74139 | 9.42119 | 2189 ft | 183 kts | 97° |
| 2026-04-23 19:03 | 54.73763 | 9.44218 | 2250 ft | 182 kts | 97° |
| 2026-04-23 19:04 | 54.73397 | 9.46290 | 2378 ft | 178 kts | 97° |
| 2026-04-23 19:04 | 54.73031 | 9.48296 | 2494 ft | 172 kts | 97° |
| 2026-04-23 19:04 | 54.72678 | 9.50269 | 2627 ft | 173 kts | 97° |
| 2026-04-23 19:04 | 54.72322 | 9.52252 | 2745 ft | 173 kts | 97° |
| 2026-04-23 19:05 | 54.71968 | 9.54210 | 2873 ft | 170 kts | 101° |
| 2026-04-23 19:05 | 54.71243 | 9.55881 | 2980 ft | 178 kts | 135° |
| 2026-04-23 19:05 | 54.70285 | 9.57249 | 3110 ft | 179 kts | 135° |
| 2026-04-23 19:05 | 54.69338 | 9.58636 | 3243 ft | 179 kts | 135° |
| 2026-04-23 19:06 | 54.68391 | 9.60023 | 3370 ft | 178 kts | 135° |
| 2026-04-23 19:06 | 54.67457 | 9.61429 | 3454 ft | 180 kts | 135° |
| 2026-04-23 19:06 | 54.66488 | 9.62870 | 3456 ft | 186 kts | 135° |
| 2026-04-23 19:06 | 54.65502 | 9.64339 | 3470 ft | 188 kts | 135° |
| 2026-04-23 19:07 | 54.64503 | 9.65817 | 3481 ft | 190 kts | 136° |
| 2026-04-23 19:07 | 54.63496 | 9.67315 | 3468 ft | 191 kts | 136° |
| 2026-04-23 19:07 | 54.62489 | 9.68807 | 3468 ft | 190 kts | 136° |
| 2026-04-23 19:07 | 54.61484 | 9.70291 | 3476 ft | 191 kts | 136° |
| 2026-04-23 19:08 | 54.60430 | 9.71717 | 3462 ft | 195 kts | 151° |
| 2026-04-23 19:08 | 54.59139 | 9.72193 | 3460 ft | 193 kts | 181° |
| 2026-04-23 19:08 | 54.57787 | 9.72237 | 3470 ft | 191 kts | 181° |
| 2026-04-23 19:08 | 54.56478 | 9.72399 | 3469 ft | 191 kts | 177° |
| 2026-04-23 19:09 | 54.55152 | 9.72640 | 3465 ft | 191 kts | 178° |
| 2026-04-23 19:09 | 54.53827 | 9.72866 | 3464 ft | 192 kts | 177° |
| 2026-04-23 19:09 | 54.52508 | 9.73113 | 3469 ft | 190 kts | 177° |
| 2026-04-23 19:09 | 54.51192 | 9.73343 | 3475 ft | 191 kts | 177° |
| 2026-04-23 19:10 | 54.49873 | 9.73574 | 3467 ft | 190 kts | 178° |
| 2026-04-23 19:10 | 54.48557 | 9.73795 | 3465 ft | 190 kts | 178° |
| 2026-04-23 19:10 | 54.47244 | 9.74028 | 3460 ft | 190 kts | 177° |
| 2026-04-23 19:10 | 54.45933 | 9.74259 | 3463 ft | 190 kts | 177° |
| 2026-04-23 19:11 | 54.44623 | 9.74490 | 3461 ft | 189 kts | 177° |
| 2026-04-23 19:11 | 54.43316 | 9.74715 | 3461 ft | 189 kts | 178° |
| 2026-04-23 19:11 | 54.42009 | 9.74944 | 3461 ft | 189 kts | 178° |
| 2026-04-23 19:11 | 54.40704 | 9.75171 | 3466 ft | 188 kts | 177° |
| 2026-04-23 19:12 | 54.39823 | 9.75325 | 3461 ft | 188 kts | 177° |
| 2026-04-23 19:12 | 54.38098 | 9.75627 | 3458 ft | 188 kts | 177° |
| 2026-04-23 19:12 | 54.36795 | 9.75854 | 3463 ft | 189 kts | 177° |
| 2026-04-23 19:12 | 54.35486 | 9.76078 | 3467 ft | 189 kts | 177° |
| 2026-04-23 19:13 | 54.34175 | 9.76307 | 3468 ft | 190 kts | 177° |
| 2026-04-23 19:13 | 54.32861 | 9.76538 | 3463 ft | 190 kts | 177° |
| 2026-04-23 19:13 | 54.31548 | 9.76764 | 3466 ft | 190 kts | 177° |
| 2026-04-23 19:13 | 54.30236 | 9.76993 | 3463 ft | 189 kts | 177° |
| 2026-04-23 19:14 | 54.28925 | 9.77222 | 3462 ft | 190 kts | 177° |
| 2026-04-23 19:14 | 54.27611 | 9.77450 | 3464 ft | 190 kts | 177° |
| 2026-04-23 19:14 | 54.26299 | 9.77675 | 3467 ft | 189 kts | 177° |
| 2026-04-23 19:14 | 54.24991 | 9.77901 | 3466 ft | 189 kts | 177° |
| 2026-04-23 19:15 | 54.23683 | 9.78130 | 3464 ft | 189 kts | 177° |
| 2026-04-23 19:15 | 54.22379 | 9.78354 | 3463 ft | 188 kts | 177° |
| 2026-04-23 19:15 | 54.21078 | 9.78643 | 3465 ft | 189 kts | 169° |
| 2026-04-23 19:15 | 54.19815 | 9.79270 | 3453 ft | 190 kts | 164° |
| 2026-04-23 19:16 | 54.18530 | 9.79934 | 3320 ft | 195 kts | 164° |
| 2026-04-23 19:16 | 54.17220 | 9.80628 | 3201 ft | 198 kts | 159° |
| 2026-04-23 19:16 | 54.16029 | 9.81826 | 3076 ft | 200 kts | 143° |
| 2026-04-23 19:17 | 54.13694 | 9.84479 | 2835 ft | 203 kts | 144° |
| 2026-04-23 19:17 | 54.12519 | 9.85817 | 2711 ft | 203 kts | 144° |
| 2026-04-23 19:17 | 54.11344 | 9.87153 | 2583 ft | 203 kts | 144° |
| 2026-04-23 19:17 | 54.10186 | 9.88524 | 2451 ft | 201 kts | 136° |
| 2026-04-23 19:18 | 54.09287 | 9.90270 | 2324 ft | 198 kts | 123° |
| 2026-04-23 19:18 | 54.08424 | 9.92108 | 2201 ft | 199 kts | 124° |
| 2026-04-23 19:18 | 54.07556 | 9.93938 | 2071 ft | 199 kts | 124° |
| 2026-04-23 19:18 | 54.06688 | 9.95770 | 1976 ft | 198 kts | 124° |
| 2026-04-23 19:19 | 54.05010 | 9.99324 | 1964 ft | 189 kts | 124° |
| 2026-04-23 19:19 | 54.04200 | 10.01070 | 1967 ft | 187 kts | 124° |
| 2026-04-23 19:20 | 54.02603 | 10.04540 | 1969 ft | 186 kts | 124° |
| 2026-04-23 19:20 | 54.01805 | 10.06261 | 1968 ft | 185 kts | 124° |
| 2026-04-23 19:20 | 54.01014 | 10.07978 | 1963 ft | 184 kts | 124° |
| 2026-04-23 19:20 | 54.00223 | 10.09684 | 1963 ft | 184 kts | 124° |
| 2026-04-23 19:21 | 53.99444 | 10.11350 | 1961 ft | 182 kts | 124° |
| 2026-04-23 19:21 | 53.97868 | 10.14727 | 1962 ft | 183 kts | 124° |
| 2026-04-23 19:21 | 53.97077 | 10.16430 | 1960 ft | 184 kts | 124° |
| 2026-04-23 19:22 | 53.96283 | 10.18144 | 1961 ft | 185 kts | 124° |
| 2026-04-23 19:22 | 53.95487 | 10.19864 | 1965 ft | 186 kts | 124° |
| 2026-04-23 19:22 | 53.93897 | 10.23336 | 1962 ft | 186 kts | 124° |
| 2026-04-23 19:23 | 53.93114 | 10.25076 | 1961 ft | 185 kts | 124° |
| 2026-04-23 19:23 | 53.92334 | 10.26814 | 1961 ft | 185 kts | 124° |
| 2026-04-23 19:23 | 53.91559 | 10.28546 | 1962 ft | 184 kts | 124° |
| 2026-04-23 19:24 | 53.90013 | 10.31992 | 1956 ft | 183 kts | 124° |
| 2026-04-23 19:24 | 53.89246 | 10.33716 | 1955 ft | 183 kts | 124° |
| 2026-04-23 19:24 | 53.87719 | 10.37155 | 1956 ft | 183 kts | 124° |
| 2026-04-23 19:25 | 53.86194 | 10.40612 | 1953 ft | 184 kts | 124° |
| 2026-04-23 19:25 | 53.84694 | 10.44017 | 1939 ft | 174 kts | 124° |
| 2026-04-23 19:26 | 53.83282 | 10.47198 | 1971 ft | 158 kts | 124° |
| 2026-04-23 19:26 | 53.82640 | 10.48652 | 1959 ft | 152 kts | 124° |
| 2026-04-23 19:27 | 53.81396 | 10.51436 | 1946 ft | 145 kts | 124° |
| 2026-04-23 19:27 | 53.80200 | 10.55989 | 1797 ft | 147 kts | 97° |
| 2026-04-23 19:28 | 53.80403 | 10.59324 | 1546 ft | 143 kts | 74° |
| 2026-04-23 19:28 | 53.80838 | 10.62617 | 1298 ft | 144 kts | 70° |
| 2026-04-23 19:29 | 53.81077 | 10.64274 | 1167 ft | 145 kts | 70° |
| 2026-04-23 19:29 | 53.81624 | 10.67526 | 947 ft | 140 kts | 64° |
| 2026-04-23 19:30 | 53.82316 | 10.70553 | 936 ft | 136 kts | 64° |
| 2026-04-23 19:30 | 53.82656 | 10.72038 | 940 ft | 135 kts | 64° |
| 2026-04-23 19:30 | 53.83221 | 10.74681 | 941 ft | 111 kts | 65° |
| 2026-04-23 19:31 | 53.83482 | 10.75883 | 938 ft | 108 kts | 65° |
| 2026-04-23 19:31 | 53.83743 | 10.77073 | 937 ft | 106 kts | 64° |
| 2026-04-23 19:31 | 53.83902 | 10.78255 | 929 ft | 107 kts | 98° |
| 2026-04-23 19:31 | 53.83426 | 10.79094 | 935 ft | 99 kts | 167° |
| 2026-04-23 19:32 | 53.82840 | 10.78875 | 939 ft | 83 kts | 231° |
| 2026-04-23 19:32 | 53.82377 | 10.78308 | 943 ft | 90 kts | 203° |
| 2026-04-23 19:32 | 53.81885 | 10.77762 | 943 ft | 84 kts | 230° |
| 2026-04-23 19:32 | 53.81542 | 10.77001 | 928 ft | 81 kts | 252° |
| 2026-04-23 19:33 | 53.81311 | 10.76185 | 908 ft | 79 kts | 255° |
| 2026-04-23 19:33 | 53.81173 | 10.75301 | 568 ft | 79 kts | 257° |
| 2026-04-23 19:33 | 53.80857 | 10.73638 | 176 ft | 68 kts | 253° |
| 2026-04-23 19:34 | 53.80725 | 10.72953 | 68 ft | 54 kts | 251° |
| 2026-04-23 19:34 | 53.80629 | 10.72448 | 58 ft | 37 kts | 253° |
| 2026-04-23 19:34 | 53.80571 | 10.71978 | 59 ft | 11 kts | 292° |
| 2026-04-23 19:35 | 53.80599 | 10.71874 | 58 ft | 8 kts | 294° |
| 2026-04-23 19:35 | 53.80614 | 10.71811 | 59 ft | 0 kts | 292° |
| 2026-04-23 19:35 | 53.80629 | 10.71748 | 59 ft | 16 kts | 292° |
| 2026-04-23 19:36 | 53.80660 | 10.71583 | 60 ft | 13 kts | 266° |
| 2026-04-23 19:36 | 53.80641 | 10.71455 | 59 ft | 10 kts | 252° |
| 2026-04-23 19:36 | 53.80608 | 10.71285 | 60 ft | 20 kts | 251° |
| 2026-04-23 19:36 | 53.80571 | 10.71093 | 59 ft | 15 kts | 253° |
| 2026-04-23 19:37 | 53.80544 | 10.70949 | 58 ft | 11 kts | 252° |
| 2026-04-23 19:37 | 53.80525 | 10.70844 | 59 ft | 8 kts | 253° |
| 2026-04-23 19:37 | 53.80503 | 10.70727 | 54 ft | 18 kts | 252° |
| 2026-04-23 19:37 | 53.80468 | 10.70553 | 57 ft | 13 kts | 250° |
| 2026-04-23 19:38 | 53.80464 | 10.70427 | 57 ft | 10 kts | 311° |
| 2026-04-23 19:38 | 53.80516 | 10.70360 | 60 ft | 9 kts | 324° |
| 2026-04-23 19:38 | 53.80571 | 10.70341 | 60 ft | 9 kts | 36° |
| 2026-04-23 19:38 | 53.80601 | 10.70417 | 59 ft | 6 kts | 88° |
| 2026-04-23 19:39 | 53.80575 | 10.70459 | 60 ft | 4 kts | 161° |
| 2026-04-23 19:39 | 53.80558 | 10.70480 | 55 ft | 0 kts | 134° |